createdAt,value
2019-04-05T00:00:27.027Z,44.00
2019-04-05T00:13:49.180Z,44.10
2019-04-05T00:40:13.587Z,44.50
2019-04-05T00:53:20.866Z,44.70
2019-04-05T01:06:28.121Z,44.80
2019-04-05T01:19:35.374Z,45.00
2019-04-05T01:32:42.602Z,45.10
2019-04-05T01:58:52.307Z,45.20
2019-04-05T02:11:59.567Z,45.30
2019-04-05T02:25:06.889Z,45.50
2019-04-05T02:38:14.192Z,45.40
2019-04-05T02:51:21.425Z,45.50
2019-04-05T03:04:45.586Z,45.60
2019-04-05T03:18:08.346Z,45.70
2019-04-05T03:31:31.205Z,45.70
2019-04-05T03:44:54.017Z,45.90
2019-04-05T03:58:16.814Z,45.90
2019-04-05T04:11:39.620Z,45.90
2019-04-05T04:25:02.455Z,45.90
2019-04-05T04:38:25.262Z,46.00
2019-04-05T04:51:48.120Z,46.10
2019-04-05T05:05:10.924Z,46.20
2019-04-05T05:18:33.734Z,46.20
2019-04-05T05:31:56.520Z,46.30
2019-04-05T05:45:19.326Z,46.30
2019-04-05T06:11:43.836Z,46.60
2019-04-05T06:37:56.978Z,44.90
2019-04-05T06:51:04.284Z,44.30
2019-04-05T07:04:11.614Z,44.10
2019-04-05T07:17:19.116Z,43.70
2019-04-05T07:44:18.093Z,43.90
2019-04-05T07:57:25.459Z,44.10
2019-04-05T08:10:32.983Z,43.90
2019-04-05T08:23:40.218Z,43.80
2019-04-05T08:36:47.455Z,44.10
2019-04-05T08:50:11.300Z,43.90
2019-04-05T09:03:34.105Z,43.80
2019-04-05T09:16:56.920Z,43.60
2019-04-05T09:30:19.755Z,43.50
2019-04-05T09:43:42.555Z,43.50
2019-04-05T10:25:29.315Z,45.90
2019-04-05T10:52:27.114Z,43.90
2019-04-05T11:05:34.339Z,44.10
2019-04-05T11:18:41.590Z,43.80
2019-04-05T11:31:56.426Z,45.00
2019-04-05T11:44:56.532Z,44.10
2019-04-05T11:58:19.864Z,44.10
2019-04-05T12:24:44.306Z,44.30
2019-04-05T12:37:55.407Z,44.20
2019-04-05T12:51:01.293Z,44.10
2019-04-05T13:04:06.245Z,44.60
2019-04-05T13:17:13.503Z,45.10
2019-04-05T13:30:37.750Z,45.60
2019-04-05T13:44:01.495Z,45.70
2019-04-05T13:57:23.327Z,49.60
2019-04-05T14:10:46.151Z,50.10
2019-04-05T14:24:09.021Z,52.00
2019-04-05T14:37:31.765Z,51.50
2019-04-05T15:03:56.175Z,52.90
2019-04-05T15:17:03.427Z,52.30
2019-04-05T15:30:10.798Z,52.90
2019-04-05T15:43:18.215Z,53.60
2019-04-05T15:56:25.463Z,53.30
2019-04-05T16:09:49.533Z,53.40
2019-04-05T16:23:12.355Z,53.30
2019-04-05T16:36:35.250Z,54.20
2019-04-05T16:49:58.105Z,55.80
2019-04-05T17:03:20.813Z,55.80
2019-04-05T17:16:43.689Z,56.20
2019-04-05T17:30:06.546Z,53.70
2019-04-05T17:43:29.289Z,52.70
2019-04-05T17:56:52.177Z,52.50
2019-04-05T18:23:24.783Z,52.00
2019-04-05T18:36:24.182Z,51.10
2019-04-05T18:49:31.620Z,48.10
2019-04-05T19:02:39.020Z,47.60
2019-04-05T19:16:03.578Z,45.60
2019-04-05T19:29:26.322Z,45.60
2019-04-05T19:56:12.028Z,46.40
2019-04-05T20:09:34.688Z,46.50
2019-04-05T20:22:57.962Z,46.60
2019-04-05T20:36:20.500Z,46.70
2019-04-05T20:49:43.182Z,46.90
2019-04-05T21:03:05.920Z,46.90
2019-04-05T21:16:28.885Z,46.30
2019-04-05T21:29:51.930Z,46.40
2019-04-05T21:43:14.481Z,46.50
2019-04-05T21:56:37.345Z,46.60
2019-04-05T22:10:00.212Z,46.50
2019-04-05T22:23:22.843Z,46.60
2019-04-05T22:36:45.702Z,46.60
2019-04-05T22:50:08.444Z,46.60
2019-04-05T23:03:31.360Z,46.60
2019-04-05T23:16:54.117Z,46.50
2019-04-05T23:43:51.940Z,46.20
2019-04-05T23:56:59.280Z,46.70
